Time;durP1;ratioP1;P1;durP2;ratioP2;P2;SDS_P1;SDS_P2;PMS_P1;PMS_P2;Temp;Humidity;BMP_temperature;BMP_pressure;BME280_temperature;BME280_humidity;BME280_pressure;Samples;Min_cycle;Max_cycle;Signal;HPM_P1;HPM_P2
2021/06/14 00:00:09;;;;;;;2.53;1.67;;;;;;;15.90;63.73;98588.84;4993223;28;20396;-81
2021/06/14 00:02:35;;;;;;;5.90;1.70;;;;;;;15.88;62.80;98588.34;4993427;28;20045;-81
2021/06/14 00:05:01;;;;;;;3.50;2.13;;;;;;;15.85;63.05;98588.97;4993234;28;20037;-80
2021/06/14 00:07:26;;;;;;;7.72;2.03;;;;;;;15.84;62.69;98587.34;4993188;28;20026;-82
2021/06/14 00:09:52;;;;;;;2.13;1.80;;;;;;;15.81;62.89;98584.41;4992897;28;20025;-80
2021/06/14 00:12:21;;;;;;;3.30;1.90;;;;;;;15.75;62.49;98585.66;4993027;28;20026;-79
2021/06/14 00:14:50;;;;;;;3.42;2.00;;;;;;;15.76;62.82;98595.53;4992751;28;20419;-82
2021/06/14 00:17:16;;;;;;;6.85;2.17;;;;;;;15.77;63.56;98595.25;5002972;28;20073;-83
2021/06/14 00:19:42;;;;;;;6.82;3.65;;;;;;;15.70;64.82;98594.88;5019812;28;20037;-82
2021/06/14 00:22:08;;;;;;;5.78;3.17;;;;;;;15.64;62.71;98596.13;5020956;28;20026;-82
2021/06/14 00:24:33;;;;;;;4.07;1.90;;;;;;;15.66;64.34;98593.88;5012901;28;20030;-80
2021/06/14 00:26:59;;;;;;;12.60;3.05;;;;;;;15.59;63.09;98587.97;5012801;28;20026;-80
2021/06/14 00:29:24;;;;;;;4.22;2.22;;;;;;;15.63;63.12;98594.47;5012047;28;20037;-81
2021/06/14 00:31:49;;;;;;;3.35;2.10;;;;;;;15.54;63.52;98593.59;4994492;28;20099;-80
2021/06/14 00:34:15;;;;;;;5.03;1.95;;;;;;;15.50;64.11;98595.38;5011777;28;20025;-81
2021/06/14 00:36:40;;;;;;;4.80;2.05;;;;;;;15.46;63.43;98594.31;4994434;28;20516;-81
2021/06/14 00:39:06;;;;;;;2.67;1.95;;;;;;;15.45;63.57;98599.00;5011321;28;20546;-82
2021/06/14 00:41:31;;;;;;;2.80;1.88;;;;;;;15.37;63.11;98601.69;5011846;28;20029;-81
2021/06/14 00:43:56;;;;;;;2.67;1.77;;;;;;;15.35;63.07;98606.69;5012029;28;20072;-82
2021/06/14 00:46:22;;;;;;;3.10;1.75;;;;;;;15.26;63.67;98605.78;5011651;28;20010;-80
2021/06/14 00:48:47;;;;;;;5.50;1.95;;;;;;;15.20;63.35;98596.81;5011715;28;20028;-81
2021/06/14 00:51:13;;;;;;;7.90;2.10;;;;;;;15.19;63.09;98606.22;5011814;28;20033;-80
2021/06/14 00:53:43;;;;;;;2.83;1.63;;;;;;;15.17;63.93;98613.16;5011588;28;20041;-82
2021/06/14 00:56:12;;;;;;;4.80;2.35;;;;;;;15.08;63.67;98602.06;5012052;28;20478;-81
2021/06/14 00:58:39;;;;;;;3.42;1.88;;;;;;;15.09;63.83;98605.63;4994234;28;20022;-81
2021/06/14 01:01:06;;;;;;;5.32;1.88;;;;;;;15.00;65.89;98600.84;5011606;28;20097;-82
2021/06/14 01:03:32;;;;;;;9.65;3.72;;;;;;;14.94;64.51;98610.34;5012190;28;20022;-80
2021/06/14 01:06:01;;;;;;;10.20;2.80;;;;;;;14.91;64.79;98602.69;5010122;28;20041;-78
2021/06/14 01:08:29;;;;;;;7.18;1.92;;;;;;;14.94;64.54;98610.34;5010156;28;20037;-81
2021/06/14 01:10:56;;;;;;;3.45;1.92;;;;;;;14.92;64.83;98603.50;5011101;28;20045;-79
2021/06/14 01:13:25;;;;;;;4.05;1.85;;;;;;;14.81;64.36;98597.41;4993777;28;20030;-82
2021/06/14 01:16:15;;;;;;;3.58;1.90;;;;;;;14.77;64.15;98601.88;5010098;28;20036;-80
2021/06/14 01:18:46;;;;;;;4.00;1.83;;;;;;;14.77;64.95;98603.81;5011229;28;20083;-78
2021/06/14 01:21:22;;;;;;;5.72;1.98;;;;;;;14.78;64.34;98603.53;5011442;28;20025;-80
2021/06/14 01:24:20;;;;;;;3.30;1.88;;;;;;;14.79;63.98;98610.66;5011640;28;20045;-81
2021/06/14 01:27:05;;;;;;;5.13;1.80;;;;;;;14.67;64.54;98604.84;5011543;28;20438;-78
2021/06/14 01:29:32;;;;;;;3.78;2.10;;;;;;;14.58;63.52;98600.34;5011270;28;20022;-80
2021/06/14 01:32:00;;;;;;;4.95;2.20;;;;;;;14.69;64.32;98619.09;5011504;28;20030;-82
2021/06/14 01:34:28;;;;;;;3.33;1.90;;;;;;;14.64;64.04;98605.44;5011433;28;20113;-78
2021/06/14 01:36:56;;;;;;;3.80;1.88;;;;;;;14.56;64.59;98608.94;5011247;28;20486;-80
2021/06/14 01:39:27;;;;;;;7.05;2.33;;;;;;;14.45;64.95;98608.28;5010591;28;20157;-79
2021/06/14 01:41:54;;;;;;;3.13;2.20;;;;;;;14.53;65.79;98612.28;4993568;28;20026;-80
2021/06/14 01:44:22;;;;;;;8.80;2.17;;;;;;;14.52;65.96;98602.41;5011016;28;20061;-80
2021/06/14 01:46:49;;;;;;;7.75;2.45;;;;;;;14.45;66.57;98612.97;5010765;28;20457;-80
2021/06/14 01:49:16;;;;;;;3.95;2.38;;;;;;;14.39;67.00;98608.69;5010927;28;20029;-78
2021/06/14 01:51:42;;;;;;;2.90;2.08;;;;;;;14.39;67.26;98620.53;5010861;28;20041;-79
2021/06/14 01:54:08;;;;;;;4.07;1.60;;;;;;;14.24;67.74;98612.53;4992943;28;20033;-81
2021/06/14 01:56:38;;;;;;;8.30;2.50;;;;;;;14.31;66.70;98609.38;5011200;28;20079;-81
2021/06/14 01:59:06;;;;;;;4.85;2.00;;;;;;;14.27;67.10;98611.09;5010727;28;20049;-81
2021/06/14 02:01:33;;;;;;;5.18;2.17;;;;;;;14.21;67.56;98606.81;5010845;28;20036;-79
2021/06/14 02:04:02;;;;;;;8.48;2.42;;;;;;;14.21;67.53;98606.81;5014682;28;20099;-79
2021/06/14 02:06:32;;;;;;;5.70;1.98;;;;;;;14.10;67.29;98603.41;5014555;28;20034;-81
2021/06/14 02:09:01;;;;;;;2.75;2.05;;;;;;;14.21;67.67;98604.06;5014725;28;20038;-80
2021/06/14 02:11:30;;;;;;;3.10;2.03;;;;;;;14.02;67.07;98590.34;4997101;28;20482;-80
2021/06/14 02:13:57;;;;;;;4.55;2.03;;;;;;;13.95;68.03;98601.75;4997351;28;20034;-81
2021/06/14 02:16:24;;;;;;;7.88;2.13;;;;;;;13.80;68.22;98599.25;5014667;28;20038;-80
2021/06/14 02:18:50;;;;;;;5.38;2.22;;;;;;;13.76;69.15;98606.47;5014530;28;20025;-79
2021/06/14 02:21:15;;;;;;;4.57;2.03;;;;;;;13.73;68.63;98600.75;5014577;28;20044;-77
2021/06/14 02:23:41;;;;;;;6.55;2.50;;;;;;;13.64;69.00;98600.63;5014667;28;20060;-80
2021/06/14 02:26:07;;;;;;;5.03;2.53;;;;;;;13.66;68.94;98598.38;5014098;28;20383;-80
2021/06/14 02:28:33;;;;;;;5.18;2.28;;;;;;;13.70;69.35;98604.09;5014811;28;20033;-80
2021/06/14 02:30:59;;;;;;;3.13;1.73;;;;;;;13.75;69.47;98593.81;5014236;28;20562;-78
2021/06/14 02:33:24;;;;;;;12.75;2.40;;;;;;;13.71;69.09;98601.06;5014184;28;20478;-79
2021/06/14 02:35:51;;;;;;;4.85;2.03;;;;;;;13.75;68.90;98593.03;5013701;28;20499;-81
2021/06/14 02:38:17;;;;;;;5.45;2.33;;;;;;;13.69;69.75;98592.28;5014313;28;20100;-80
2021/06/14 02:40:43;;;;;;;8.45;2.40;;;;;;;13.66;69.29;98590.13;5014371;28;20026;-79
2021/06/14 02:43:10;;;;;;;5.50;2.20;;;;;;;13.63;68.98;98584.41;5014362;28;20368;-79
2021/06/14 02:45:37;;;;;;;10.13;2.38;;;;;;;13.70;68.58;98580.16;5013881;28;20033;-82
2021/06/14 02:48:05;;;;;;;5.15;1.92;;;;;;;13.65;68.46;98579.44;4996414;28;20052;-80
2021/06/14 02:50:33;;;;;;;4.60;3.42;;;;;;;13.65;68.15;98580.28;5013952;28;20513;-80
2021/06/14 02:53:01;;;;;;;1.75;1.65;;;;;;;13.66;67.58;98581.06;5014463;28;20371;-82
2021/06/14 02:55:32;;;;;;;7.72;1.73;;;;;;;13.63;68.28;98573.41;5019044;28;20089;-81
2021/06/14 02:57:59;;;;;;;6.15;1.95;;;;;;;13.55;67.78;98572.19;5022796;28;20048;-83
2021/06/14 03:00:28;;;;;;;2.58;1.83;;;;;;;13.50;67.99;98579.69;5014118;28;20394;-79
2021/06/14 03:03:03;;;;;;;3.60;1.85;;;;;;;13.50;67.99;98572.25;5013393;28;20026;-79
2021/06/14 03:05:30;;;;;;;4.30;2.60;;;;;;;13.46;67.97;98571.22;5012546;28;20061;-81
2021/06/14 03:08:00;;;;;;;3.60;2.40;;;;;;;13.47;67.79;98578.34;4994395;28;20467;-77
2021/06/14 03:10:28;;;;;;;11.50;1.77;;;;;;;13.53;66.26;98573.59;5001351;28;20029;-79
2021/06/14 03:12:57;;;;;;;4.60;1.85;;;;;;;13.49;66.32;98573.38;5012803;28;20132;-82
2021/06/14 03:15:25;;;;;;;3.47;1.80;;;;;;;13.43;66.52;98563.59;5012492;28;20653;-82
2021/06/14 03:17:54;;;;;;;3.85;1.83;;;;;;;13.63;66.54;98574.22;5013315;28;20391;-80
2021/06/14 03:20:22;;;;;;;10.00;2.00;;;;;;;13.59;66.93;98567.72;5013407;28;20112;-84
2021/06/14 03:22:48;;;;;;;4.43;1.95;;;;;;;13.54;67.13;98569.72;5013133;28;20080;-81
2021/06/14 03:25:15;;;;;;;6.38;2.20;;;;;;;13.52;66.14;98567.28;5012784;28;20455;-81
2021/06/14 03:27:42;;;;;;;7.82;2.35;;;;;;;13.84;65.60;98564.56;4999987;28;20116;-78
2021/06/14 03:30:11;;;;;;;2.47;1.90;;;;;;;14.09;63.95;98565.22;4993331;28;20023;-80
2021/06/14 03:32:40;;;;;;;5.18;1.83;;;;;;;14.11;63.56;98565.72;4993298;28;20114;-80
2021/06/14 03:35:16;;;;;;;7.82;2.92;;;;;;;14.58;62.67;98567.31;4991776;28;20768;-80
2021/06/14 03:37:42;;;;;;;6.47;2.20;;;;;;;14.90;60.66;98572.69;4993230;28;20022;-80
2021/06/14 03:40:11;;;;;;;4.18;2.05;;;;;;;14.88;60.59;98577.69;4993005;28;20035;-79
2021/06/14 03:42:36;;;;;;;9.38;2.13;;;;;;;14.84;61.45;98571.19;4992880;28;20026;-79
2021/06/14 03:45:02;;;;;;;5.03;2.10;;;;;;;15.09;59.49;98573.38;4992934;28;20113;-80
2021/06/14 03:47:28;;;;;;;5.85;3.20;;;;;;;15.30;59.26;98577.31;4992909;28;20046;-77
2021/06/14 03:49:53;;;;;;;10.05;2.67;;;;;;;15.59;58.98;98576.94;4992913;28;20503;-79
2021/06/14 03:52:19;;;;;;;6.63;2.08;;;;;;;15.79;58.01;98581.94;4993272;28;20566;-80
2021/06/14 03:54:44;;;;;;;4.25;1.63;;;;;;;15.73;57.41;98587.91;4993099;28;20061;-82
2021/06/14 03:57:10;;;;;;;5.25;1.80;;;;;;;15.80;56.64;98586.34;4993215;28;20546;-80
2021/06/14 03:59:35;;;;;;;10.00;1.95;;;;;;;15.69;57.58;98576.69;4993288;28;20030;-80
2021/06/14 04:02:00;;;;;;;5.78;1.88;;;;;;;16.51;56.52;98590.81;4992961;28;20121;-81
2021/06/14 04:04:40;;;;;;;3.33;1.80;;;;;;;16.82;54.65;98579.72;4998108;28;20029;-85
2021/06/14 04:07:06;;;;;;;2.53;1.70;;;;;;;17.05;54.05;98574.94;4992913;28;20037;-83
2021/06/14 04:09:31;;;;;;;5.72;2.00;;;;;;;16.84;53.34;98580.25;4976875;28;20030;-82
2021/06/14 04:11:57;;;;;;;5.05;1.65;;;;;;;16.73;53.80;98581.66;4994340;28;20026;-86
2021/06/14 04:14:22;;;;;;;3.95;2.47;;;;;;;16.74;52.93;98579.72;4992771;28;20541;-85
2021/06/14 04:16:47;;;;;;;4.25;1.88;;;;;;;16.89;51.99;98582.84;4993177;28;20030;-84
2021/06/14 04:19:13;;;;;;;6.53;2.03;;;;;;;16.44;52.91;98581.38;4994126;28;20145;-85
2021/06/14 04:21:38;;;;;;;3.58;1.67;;;;;;;16.75;52.26;98581.34;4994527;28;20046;-87
2021/06/14 04:24:05;;;;;;;3.67;1.70;;;;;;;16.91;51.47;98575.06;4993935;28;20086;-88
2021/06/14 04:26:31;;;;;;;1.80;1.30;;;;;;;16.52;53.21;98588.88;4977083;28;20026;-86
2021/06/14 04:28:57;;;;;;;5.13;1.30;;;;;;;16.75;51.91;98587.69;4978192;28;20037;-87
2021/06/14 04:31:23;;;;;;;4.22;1.60;;;;;;;16.54;53.14;98592.13;4977230;28;20019;-87
2021/06/14 04:33:48;;;;;;;3.80;1.85;;;;;;;16.39;53.58;98584.25;4993838;28;20403;-85
2021/06/14 04:36:14;;;;;;;4.72;1.70;;;;;;;16.07;53.84;98580.66;4995008;28;20029;-84
2021/06/14 04:38:39;;;;;;;7.53;1.92;;;;;;;16.11;54.70;98572.56;4976280;28;20407;-85
2021/06/14 04:41:05;;;;;;;3.38;2.08;;;;;;;15.94;55.34;98573.28;4992087;28;20038;-85
2021/06/14 04:43:30;;;;;;;9.10;2.20;;;;;;;16.02;55.64;98586.34;4975044;28;20471;-85
2021/06/14 04:45:57;;;;;;;7.55;1.70;;;;;;;15.80;55.80;98580.81;4976883;28;20031;-85
2021/06/14 04:48:23;;;;;;;1.45;1.25;;;;;;;15.12;57.44;98571.94;4992385;28;20046;-83
2021/06/14 04:50:49;;;;;;;4.18;2.17;;;;;;;15.15;60.41;98585.94;4993872;28;20040;-85
2021/06/14 04:53:14;;;;;;;4.35;2.20;;;;;;;15.48;59.84;98576.34;4976164;28;20105;-83
2021/06/14 04:55:40;;;;;;;9.57;2.67;;;;;;;15.69;58.12;98581.41;4975593;28;20015;-82
2021/06/14 04:58:05;;;;;;;3.60;2.25;;;;;;;15.81;58.73;98578.88;4993260;28;20109;-82
2021/06/14 05:00:31;;;;;;;6.03;2.78;;;;;;;15.71;57.69;98581.88;4975456;28;20041;-85
2021/06/14 05:02:56;;;;;;;3.45;1.77;;;;;;;15.47;57.53;98568.38;4996173;28;20029;-81
2021/06/14 05:05:21;;;;;;;9.93;2.40;;;;;;;15.42;58.00;98596.06;5000651;28;20076;-81
2021/06/14 05:07:47;;;;;;;7.18;2.33;;;;;;;15.71;56.11;98599.25;4983903;28;20541;-78
2021/06/14 05:10:12;;;;;;;3.75;1.95;;;;;;;15.60;56.05;98603.38;4984507;28;20030;-78
2021/06/14 05:12:38;;;;;;;4.63;2.22;;;;;;;15.74;57.07;98604.16;5010166;28;20076;-77
2021/06/14 05:15:06;;;;;;;5.05;1.90;;;;;;;15.91;56.77;98604.25;5007813;28;20034;-77
2021/06/14 05:17:31;;;;;;;3.25;1.90;;;;;;;15.81;56.10;98578.88;5010420;28;20032;-85
2021/06/14 05:19:56;;;;;;;8.00;2.38;;;;;;;15.81;56.68;98590.75;4999569;28;20018;-84
2021/06/14 05:22:22;;;;;;;3.97;1.90;;;;;;;15.79;56.48;98603.19;5014630;28;20474;-83
2021/06/14 05:24:47;;;;;;;4.03;2.75;;;;;;;15.53;56.47;98603.84;5019673;28;20025;-86
2021/06/14 05:27:13;;;;;;;10.45;1.95;;;;;;;15.62;57.25;98609.41;5000052;28;20081;-82
2021/06/14 05:29:38;;;;;;;5.88;4.03;;;;;;;15.84;55.58;98608.59;4998086;28;20026;-81
2021/06/14 05:32:04;;;;;;;8.65;2.28;;;;;;;16.10;54.78;98611.56;4985061;28;20022;-83
2021/06/14 05:34:30;;;;;;;6.85;2.13;;;;;;;15.93;54.92;98604.78;5000141;28;20022;-82
2021/06/14 05:36:56;;;;;;;4.78;1.67;;;;;;;16.47;56.33;98609.16;4992681;28;20088;-75
2021/06/14 05:39:21;;;;;;;8.45;1.80;;;;;;;16.55;53.38;98599.31;4989818;28;20541;-74
2021/06/14 05:41:48;;;;;;;3.20;2.13;;;;;;;16.49;53.89;98600.56;4995860;28;20030;-75
2021/06/14 05:44:14;;;;;;;8.10;2.17;;;;;;;16.45;53.35;98602.31;4998672;28;20022;-76
2021/06/14 05:46:39;;;;;;;2.70;1.95;;;;;;;15.98;54.20;98612.09;4999206;28;20414;-74
2021/06/14 05:49:05;;;;;;;5.28;2.10;;;;;;;15.65;52.59;98613.47;5000540;28;20109;-74
2021/06/14 05:51:30;;;;;;;3.40;1.58;;;;;;;15.85;52.77;98613.78;4997824;28;20053;-75
2021/06/14 05:53:56;;;;;;;6.50;1.92;;;;;;;15.95;53.15;98608.03;4999489;28;20030;-74
2021/06/14 05:56:22;;;;;;;7.40;1.40;;;;;;;16.08;52.29;98609.91;4981218;28;20026;-74
2021/06/14 05:58:47;;;;;;;5.47;1.60;;;;;;;15.93;51.97;98601.19;4994650;28;20387;-75
2021/06/14 06:01:13;;;;;;;2.60;1.40;;;;;;;15.94;52.07;98622.94;4998546;28;20796;-79
2021/06/14 06:03:38;;;;;;;4.95;1.95;;;;;;;16.03;52.03;98610.06;4982959;28;20076;-75
2021/06/14 06:06:04;;;;;;;3.72;2.20;;;;;;;16.50;51.67;98616.00;4998304;28;20026;-74
2021/06/14 06:08:29;;;;;;;6.55;1.63;;;;;;;16.60;51.42;98621.28;4998322;28;20025;-75
2021/06/14 06:10:58;;;;;;;2.92;1.70;;;;;;;16.53;51.57;98607.91;5000287;28;20033;-76
2021/06/14 06:13:23;;;;;;;3.45;1.50;;;;;;;16.49;50.36;98606.91;4995643;28;20023;-75
2021/06/14 06:15:49;;;;;;;4.40;1.80;;;;;;;16.70;50.54;98612.69;4973376;28;20364;-75
2021/06/14 06:18:14;;;;;;;5.25;2.28;;;;;;;16.38;50.81;98615.78;4989793;28;20034;-76
2021/06/14 06:20:40;;;;;;;3.65;1.63;;;;;;;16.87;49.83;98610.00;4990233;28;20519;-74
2021/06/14 06:23:06;;;;;;;6.47;1.80;;;;;;;16.79;49.85;98612.75;4989622;28;20031;-75
2021/06/14 06:25:32;;;;;;;2.63;1.77;;;;;;;16.69;49.52;98610.25;4990560;28;20084;-74
2021/06/14 06:27:58;;;;;;;4.72;1.73;;;;;;;16.55;50.08;98604.84;4991002;28;20026;-75
2021/06/14 06:30:26;;;;;;;3.42;1.65;;;;;;;16.62;48.87;98610.72;4991001;28;20376;-74
2021/06/14 06:32:51;;;;;;;8.10;1.85;;;;;;;16.63;49.74;98604.06;4989251;28;20061;-75
2021/06/14 06:35:17;;;;;;;7.90;1.50;;;;;;;16.77;49.24;98609.47;4988735;28;20451;-75
2021/06/14 06:37:43;;;;;;;3.78;1.80;;;;;;;16.76;49.61;98605.88;4989081;28;20026;-74
2021/06/14 06:40:08;;;;;;;4.35;1.13;;;;;;;17.06;48.03;98604.22;4971497;28;20053;-74
2021/06/14 06:42:35;;;;;;;4.47;2.08;;;;;;;17.09;47.72;98603.56;4988859;28;20073;-75
2021/06/14 06:45:00;;;;;;;2.90;1.40;;;;;;;17.17;47.45;98602.75;4989222;28;20026;-74
2021/06/14 06:47:26;;;;;;;4.55;1.60;;;;;;;17.30;47.83;98592.69;4990469;28;20042;-76
2021/06/14 06:49:51;;;;;;;8.07;1.55;;;;;;;17.47;47.27;98590.78;4993754;28;20034;-76
2021/06/14 06:52:17;;;;;;;4.95;1.55;;;;;;;17.26;48.11;98592.53;4976502;28;20121;-74
2021/06/14 06:54:43;;;;;;;2.05;1.40;;;;;;;17.26;48.18;98587.00;4993844;28;20446;-75
2021/06/14 06:57:08;;;;;;;5.53;1.88;;;;;;;17.23;47.84;98584.09;4994164;28;20030;-74
2021/06/14 06:59:35;;;;;;;5.70;1.42;;;;;;;17.39;48.32;98585.22;4993963;28;20030;-73
2021/06/14 07:02:00;;;;;;;7.93;1.77;;;;;;;17.26;47.39;98589.75;4993761;28;20506;-74
2021/06/14 07:04:26;;;;;;;7.43;2.08;;;;;;;17.44;48.14;98579.53;4993738;28;20065;-76
2021/06/14 07:06:51;;;;;;;3.00;1.52;;;;;;;17.45;48.12;98584.72;4992117;28;20505;-74
2021/06/14 07:09:17;;;;;;;4.97;1.75;;;;;;;17.59;48.11;98579.91;4993757;28;20057;-76
2021/06/14 07:11:43;;;;;;;7.55;1.95;;;;;;;17.82;47.43;98575.00;4993852;28;20034;-74
2021/06/14 07:14:09;;;;;;;3.05;1.65;;;;;;;17.51;47.82;98577.91;4993883;28;20410;-73
2021/06/14 07:16:35;;;;;;;4.05;1.70;;;;;;;17.25;48.49;98574.31;4993615;28;20479;-77
2021/06/14 07:19:02;;;;;;;3.58;2.00;;;;;;;17.52;48.22;98567.66;4993366;28;20074;-75
2021/06/14 07:21:28;;;;;;;3.63;1.30;;;;;;;17.52;48.86;98575.94;4993341;28;20391;-75
2021/06/14 07:23:54;;;;;;;2.65;1.75;;;;;;;17.47;48.54;98579.72;4993791;28;20042;-74
2021/06/14 07:26:20;;;;;;;1.67;1.13;;;;;;;17.92;47.96;98569.13;4993519;28;20035;-75
2021/06/14 07:28:47;;;;;;;6.13;1.60;;;;;;;18.04;46.85;98563.72;4993356;28;20057;-77
2021/06/14 07:31:13;;;;;;;2.22;1.38;;;;;;;18.28;47.01;98571.50;4993595;28;20053;-74
2021/06/14 07:33:39;;;;;;;19.15;2.97;;;;;;;18.55;46.60;98562.78;4993536;28;20475;-75
2021/06/14 07:36:07;;;;;;;3.67;1.70;;;;;;;18.50;46.25;98571.28;4975908;28;20483;-75
2021/06/14 07:38:33;;;;;;;2.80;1.63;;;;;;;18.76;45.64;98570.38;4993396;28;20161;-75
2021/06/14 07:40:59;;;;;;;4.20;1.80;;;;;;;18.16;46.54;98571.38;4992810;28;20117;-73
2021/06/14 07:43:25;;;;;;;6.30;2.58;;;;;;;18.33;45.53;98553.84;4992937;28;20028;-75
2021/06/14 07:45:51;;;;;;;3.55;1.75;;;;;;;18.28;45.83;98560.41;4993101;28;20034;-75
2021/06/14 07:48:18;;;;;;;4.22;1.65;;;;;;;18.28;45.46;98551.28;4978745;28;20501;-74
2021/06/14 07:50:45;;;;;;;3.88;2.05;;;;;;;18.61;45.91;98549.53;5003295;28;20034;-76
2021/06/14 07:53:10;;;;;;;6.80;1.77;;;;;;;18.84;44.83;98559.22;5001169;28;20105;-75
2021/06/14 07:55:37;;;;;;;3.33;1.40;;;;;;;18.63;45.36;98555.59;5002302;28;20129;-75
2021/06/14 07:58:03;;;;;;;5.28;1.95;;;;;;;18.27;45.33;98544.09;5000659;28;20022;-74
2021/06/14 08:00:29;;;;;;;8.32;1.90;;;;;;;18.39;45.77;98556.13;5000913;28;20037;-75
2021/06/14 08:02:55;;;;;;;3.78;1.40;;;;;;;18.94;44.96;98553.31;5002158;28;20034;-74
2021/06/14 08:05:21;;;;;;;5.75;1.83;;;;;;;18.62;45.18;98549.22;5000281;28;20114;-74
2021/06/14 08:07:47;;;;;;;3.13;1.42;;;;;;;18.84;45.81;98553.69;5001299;28;20021;-72
2021/06/14 08:10:16;;;;;;;3.10;1.70;;;;;;;19.13;45.33;98559.22;5001813;28;20040;-75
2021/06/14 08:12:46;;;;;;;2.92;1.48;;;;;;;18.70;45.13;98544.78;5000357;28;20030;-74
2021/06/14 08:15:14;;;;;;;3.47;1.95;;;;;;;18.76;45.27;98543.47;5000390;28;20040;-73
2021/06/14 08:17:39;;;;;;;8.93;3.50;;;;;;;19.55;43.82;98539.81;5001536;28;20030;-73
2021/06/14 08:25:11;;;;;;;5.68;1.80;;;;;;;19.14;44.01;98541.41;5001091;28;20060;-72
2021/06/14 08:27:46;;;;;;;5.60;2.35;;;;;;;19.47;44.05;98524.06;5001632;28;20611;-71
2021/06/14 08:30:17;;;;;;;3.15;1.55;;;;;;;19.88;42.78;98531.53;4999948;28;20107;-72
2021/06/14 08:32:43;;;;;;;3.00;1.80;;;;;;;20.57;42.07;98526.03;5000308;28;20076;-71
2021/06/14 08:35:14;;;;;;;5.07;1.98;;;;;;;21.14;41.04;98518.38;4999608;28;20506;-71
2021/06/14 08:37:40;;;;;;;3.33;1.83;;;;;;;19.96;42.58;98528.66;4997869;28;20026;-71
2021/06/14 08:40:07;;;;;;;4.80;2.75;;;;;;;19.18;44.46;98514.63;4999744;28;20076;-71
2021/06/14 08:42:33;;;;;;;4.97;1.73;;;;;;;19.28;44.17;98502.31;4998437;28;20034;-72
2021/06/14 08:44:59;;;;;;;7.05;2.15;;;;;;;19.35;44.33;98510.09;4997727;28;20372;-71
2021/06/14 08:47:27;;;;;;;4.20;2.13;;;;;;;19.74;44.01;98513.19;4999987;28;20069;-72
2021/06/14 08:49:53;;;;;;;3.78;1.60;;;;;;;20.06;43.61;98508.78;4996897;28;20027;-73
2021/06/14 08:52:19;;;;;;;2.60;1.52;;;;;;;20.27;43.21;98503.97;4996160;28;20025;-73
2021/06/14 08:54:45;;;;;;;8.05;1.67;;;;;;;21.11;41.45;98498.78;4999119;28;20010;-74
2021/06/14 08:57:13;;;;;;;4.18;1.73;;;;;;;20.24;42.34;98506.59;5000372;28;20117;-72
2021/06/14 08:59:38;;;;;;;5.00;2.17;;;;;;;20.23;43.10;98497.47;4998689;28;20065;-73
2021/06/14 09:02:04;;;;;;;3.45;2.22;;;;;;;20.76;41.63;98496.50;4981222;28;20033;-73
2021/06/14 09:04:30;;;;;;;3.92;1.90;;;;;;;19.87;43.81;98500.16;4997644;28;20514;-73
2021/06/14 09:06:55;;;;;;;6.15;2.63;;;;;;;20.19;43.77;98499.31;4982361;28;20461;-74
2021/06/14 09:09:20;;;;;;;3.53;1.70;;;;;;;21.02;42.30;98487.72;4998450;28;20121;-73
2021/06/14 09:11:52;;;;;;;4.32;1.83;;;;;;;21.69;40.64;98486.16;4997435;28;20045;-72
2021/06/14 09:14:23;;;;;;;4.25;1.92;;;;;;;22.00;39.80;98475.13;4997914;28;20479;-73
2021/06/14 09:16:52;;;;;;;4.20;1.85;;;;;;;21.44;40.83;98493.81;4998408;28;20092;-76
2021/06/14 09:19:29;;;;;;;7.78;2.03;;;;;;;21.66;40.94;98484.09;4980642;28;20390;-77
2021/06/14 09:21:55;;;;;;;3.42;2.00;;;;;;;21.35;40.39;98491.19;4997861;28;20030;-75
2021/06/14 09:24:26;;;;;;;4.57;1.65;;;;;;;21.19;41.24;98483.91;4998468;28;20130;-74
2021/06/14 09:26:52;;;;;;;7.25;2.15;;;;;;;20.37;42.74;98482.44;4997980;28;20038;-74
2021/06/14 09:29:26;;;;;;;2.88;1.73;;;;;;;20.21;43.07;98477.53;4983059;28;20007;-74
2021/06/14 09:31:58;;;;;;;3.10;2.75;;;;;;;21.20;42.17;98472.44;4997838;28;20120;-74
2021/06/14 09:34:42;;;;;;;5.95;1.85;;;;;;;20.62;42.57;98479.31;4998636;28;20112;-75
2021/06/14 09:37:11;;;;;;;3.60;2.10;;;;;;;20.23;43.68;98483.59;4998992;28;20038;-75
2021/06/14 09:39:46;;;;;;;5.45;2.25;;;;;;;20.14;43.72;98479.28;4997744;28;20489;-74
2021/06/14 09:42:25;;;;;;;4.22;1.92;;;;;;;20.65;43.49;98463.91;5000777;28;20141;-74
2021/06/14 09:44:53;;;;;;;3.83;1.58;;;;;;;21.30;42.28;98457.22;5000213;28;20041;-74
2021/06/14 09:47:18;;;;;;;3.42;1.73;;;;;;;21.93;41.19;98461.00;5003868;28;20045;-74
2021/06/14 09:50:02;;;;;;;4.13;2.17;;;;;;;21.64;40.75;98458.59;4998395;28;20390;-74
2021/06/14 09:52:28;;;;;;;5.00;1.65;;;;;;;21.22;41.56;98453.41;4981855;28;20125;-74
2021/06/14 09:55:15;;;;;;;4.10;1.63;;;;;;;20.39;42.96;98455.97;4997810;28;20065;-74
2021/06/14 09:57:40;;;;;;;5.53;1.92;;;;;;;20.79;42.49;98451.28;4998581;28;20118;-75
2021/06/14 10:00:13;;;;;;;6.35;1.85;;;;;;;21.63;41.54;98452.19;4997904;28;20129;-74
2021/06/14 10:02:39;;;;;;;4.20;1.77;;;;;;;21.21;41.46;98446.22;4998428;28;20035;-74
2021/06/14 10:05:21;;;;;;;3.75;1.67;;;;;;;21.37;41.55;98429.56;4997866;28;20478;-74
2021/06/14 10:07:55;;;;;;;3.78;1.55;;;;;;;21.99;41.44;98440.06;4999599;28;20063;-75
2021/06/14 10:10:28;;;;;;;2.88;1.90;;;;;;;21.99;40.44;98442.06;4998427;28;20030;-74
2021/06/14 10:12:55;;;;;;;3.92;1.77;;;;;;;22.04;41.04;98436.22;4997409;28;20037;-74
2021/06/14 10:15:50;;;;;;;5.50;2.47;;;;;;;21.90;41.30;98424.69;4998269;28;20564;-75
2021/06/14 10:18:28;;;;;;;3.00;1.73;;;;;;;22.15;40.88;98442.84;4994680;28;20521;-75
2021/06/14 10:20:54;;;;;;;3.92;2.40;;;;;;;21.22;42.09;98431.16;4994615;28;20046;-74
2021/06/14 10:23:19;;;;;;;10.32;1.92;;;;;;;21.19;42.97;98431.84;4999506;28;20034;-74
2021/06/14 10:25:44;;;;;;;3.40;2.08;;;;;;;21.13;42.29;98427.69;5000528;28;20025;-74
2021/06/14 10:28:10;;;;;;;5.22;1.90;;;;;;;21.11;42.26;98424.44;5003055;28;20036;-75
2021/06/14 10:30:37;;;;;;;3.17;1.70;;;;;;;21.71;41.63;98425.34;5001632;28;20026;-74
2021/06/14 10:33:05;;;;;;;9.23;2.25;;;;;;;21.87;40.93;98420.59;5001571;28;20034;-74
2021/06/14 10:35:30;;;;;;;6.35;1.77;;;;;;;22.10;40.31;98430.00;5003078;28;20549;-74
2021/06/14 10:38:01;;;;;;;3.88;2.63;;;;;;;21.41;41.93;98421.31;4983509;28;20038;-74
2021/06/14 10:40:27;;;;;;;3.47;2.40;;;;;;;21.75;41.48;98431.81;4983346;28;20500;-75
2021/06/14 10:42:57;;;;;;;3.35;2.03;;;;;;;22.04;40.61;98417.50;5002754;28;20092;-75
2021/06/14 10:45:29;;;;;;;3.28;1.67;;;;;;;22.43;40.45;98413.69;5002493;28;20403;-75
2021/06/14 10:47:56;;;;;;;4.22;1.88;;;;;;;22.24;40.34;98410.84;5001733;28;20042;-75
2021/06/14 10:50:25;;;;;;;5.38;1.95;;;;;;;21.89;41.60;98409.97;5002466;28;20014;-75
2021/06/14 10:52:54;;;;;;;3.80;1.90;;;;;;;22.35;40.30;98389.63;5002567;28;20041;-76
2021/06/14 10:55:25;;;;;;;2.83;1.70;;;;;;;21.98;41.23;98404.19;5002304;28;20030;-74
2021/06/14 10:57:50;;;;;;;4.25;1.63;;;;;;;21.39;42.11;98401.41;5000504;28;20503;-74
2021/06/14 11:00:21;;;;;;;5.45;2.13;;;;;;;21.03;43.53;98388.41;5002178;28;20032;-75
2021/06/14 11:03:06;;;;;;;2.33;1.83;;;;;;;21.17;43.22;98386.88;5002638;28;20022;-75
2021/06/14 11:05:39;;;;;;;3.78;1.50;;;;;;;21.19;42.79;98384.53;5003062;28;20475;-74
2021/06/14 11:08:18;;;;;;;6.68;2.08;;;;;;;21.41;42.02;98379.56;5000600;28;20032;-74
2021/06/14 11:10:48;;;;;;;4.85;2.15;;;;;;;21.37;43.05;98365.56;5002132;28;20050;-74
2021/06/14 11:13:15;;;;;;;5.50;2.30;;;;;;;21.37;42.59;98371.13;4999795;28;20017;-74
2021/06/14 11:15:44;;;;;;;4.35;2.40;;;;;;;21.15;42.89;98369.72;5001586;28;20024;-74
2021/06/14 11:18:25;;;;;;;2.75;1.60;;;;;;;21.73;42.15;98375.69;5002313;28;20021;-74
2021/06/14 11:21:12;;;;;;;2.97;2.00;;;;;;;21.62;42.50;98377.34;5000889;28;20037;-75
2021/06/14 11:23:39;;;;;;;2.72;1.60;;;;;;;21.34;42.80;98383.78;5002584;28;20031;-75
2021/06/14 11:26:06;;;;;;;3.65;2.08;;;;;;;21.22;43.11;98378.28;5000702;28;20036;-75
2021/06/14 11:28:38;;;;;;;2.80;1.70;;;;;;;21.15;44.21;98374.47;5001880;28;20399;-75
2021/06/14 11:31:30;;;;;;;7.75;2.25;;;;;;;21.67;42.55;98363.19;5001478;28;20037;-74
2021/06/14 11:34:02;;;;;;;4.75;1.55;;;;;;;21.87;42.05;98356.53;4982802;28;20026;-73
2021/06/14 11:36:29;;;;;;;4.50;1.90;;;;;;;21.52;43.11;98361.97;4999457;28;20536;-76
2021/06/14 11:38:57;;;;;;;6.00;2.00;;;;;;;21.82;42.49;98354.03;5000493;28;20046;-74
2021/06/14 11:41:31;;;;;;;5.45;1.92;;;;;;;21.94;43.01;98356.75;5000190;28;20501;-75